Time;durP1;ratioP1;P1;durP2;ratioP2;P2;SDS_P1;SDS_P2;PMS_P1;PMS_P2;Temp;Humidity;BMP_temperature;BMP_pressure;BME280_temperature;BME280_humidity;BME280_pressure;Samples;Min_cycle;Max_cycle;Signal;HPM_P1;HPM_P2
2021/12/21 00:03:02;;;;;;;5.37;2.57;;;;;;;;;;10241035;28;20083;-75
2021/12/21 00:08:08;;;;;;;4.57;1.87;;;;;;;;;;10242679;28;20339;-75
2021/12/21 00:13:23;;;;;;;6.80;2.80;;;;;;;;;;10254930;28;20043;-77
2021/12/21 00:18:37;;;;;;;6.20;2.27;;;;;;;;;;10261157;28;20042;-75
2021/12/21 00:23:44;;;;;;;6.50;2.23;;;;;;;;;;10250911;28;20094;-73
2021/12/21 00:28:54;;;;;;;11.53;2.90;;;;;;;;;;10233022;23;20062;-71
2021/12/21 00:33:58;;;;;;;7.37;2.37;;;;;;;;;;10199778;29;20147;-71
2021/12/21 00:39:06;;;;;;;7.15;2.75;;;;;;;;;;10197352;29;20121;-69
2021/12/21 00:44:09;;;;;;;4.17;2.10;;;;;;;;;;10196766;29;20465;-71
2021/12/21 00:49:16;;;;;;;6.43;2.00;;;;;;;;;;10218441;28;20094;-71
2021/12/21 00:54:21;;;;;;;6.93;2.43;;;;;;;;;;10214756;29;20069;-71
2021/12/21 00:59:24;;;;;;;8.73;2.37;;;;;;;;;;10209226;29;20542;-71
2021/12/21 01:04:32;;;;;;;6.07;2.70;;;;;;;;;;10223284;28;20043;-71
2021/12/21 01:10:05;;;;;;;6.33;2.27;;;;;;;;;;10220514;28;20481;-71
2021/12/21 01:15:19;;;;;;;4.00;1.87;;;;;;;;;;10239612;28;20047;-71
2021/12/21 01:20:31;;;;;;;6.20;1.70;;;;;;;;;;10237268;28;20047;-71
2021/12/21 01:25:42;;;;;;;5.97;2.50;;;;;;;;;;10236150;28;20426;-71
2021/12/21 01:30:52;;;;;;;6.27;2.10;;;;;;;;;;10215986;28;20062;-71
2021/12/21 01:35:57;;;;;;;3.70;1.50;;;;;;;;;;10221214;28;20114;-73
2021/12/21 01:41:07;;;;;;;3.13;2.10;;;;;;;;;;10239304;28;20039;-71
2021/12/21 01:51:31;;;;;;;4.83;2.30;;;;;;;;;;10230166;28;20210;-71
2021/12/21 01:56:35;;;;;;;4.03;1.73;;;;;;;;;;10241063;28;20062;-71
2021/12/21 02:01:37;;;;;;;;;;;;;;;;;;10238147;28;20138;-71
2021/12/21 02:06:41;;;;;;;4.90;2.10;;;;;;;;;;10235299;28;19948;-69
2021/12/21 02:11:45;;;;;;;5.97;2.60;;;;;;;;;;10234949;28;20080;-69
2021/12/21 02:16:58;;;;;;;2.93;1.70;;;;;;;;;;10233275;28;20039;-71
2021/12/21 02:22:10;;;;;;;10.27;1.77;;;;;;;;;;10239893;28;20043;-72
2021/12/21 02:27:27;;;;;;;5.60;2.93;;;;;;;;;;10246311;28;20510;-72
2021/12/21 02:32:29;;;;;;;4.37;1.40;;;;;;;;;;10240504;28;20476;-69
2021/12/21 02:37:34;;;;;;;6.63;2.80;;;;;;;;;;10244917;28;20027;-70
2021/12/21 02:42:36;;;;;;;;;;;;;;;;;;10244838;28;20036;-71
2021/12/21 02:47:39;;;;;;;14.00;1.87;;;;;;;;;;10241928;28;19922;-71
2021/12/21 02:52:46;;;;;;;8.50;2.60;;;;;;;;;;10242710;28;20039;-70
2021/12/21 02:57:49;;;;;;;3.97;1.57;;;;;;;;;;10248090;28;20298;-70
2021/12/21 03:02:52;;;;;;;7.57;2.13;;;;;;;;;;10243662;28;20063;-70
2021/12/21 03:08:11;;;;;;;5.57;2.53;;;;;;;;;;10243436;28;20712;-70
2021/12/21 03:18:36;;;;;;;5.83;2.17;;;;;;;;;;10243968;28;20440;-68
2021/12/21 03:23:41;;;;;;;12.17;2.10;;;;;;;;;;10226698;28;20039;-69
2021/12/21 03:28:45;;;;;;;8.47;2.73;;;;;;;;;;10227741;28;20115;-69
2021/12/21 03:33:48;;;;;;;5.67;2.33;;;;;;;;;;10218484;28;20043;-70
2021/12/21 03:38:58;;;;;;;8.40;2.60;;;;;;;;;;10219435;28;20098;-71
2021/12/21 03:44:03;;;;;;;3.50;1.23;;;;;;;;;;10243244;28;20043;-71
2021/12/21 03:49:30;;;;;;;;;;;;;;;;;;10229058;28;20042;-71
2021/12/21 03:54:30;;;;;;;3.83;1.70;;;;;;;;;;10224008;28;20024;-71
2021/12/21 03:59:34;;;;;;;7.33;2.30;;;;;;;;;;10246726;28;20043;-71
2021/12/21 04:04:37;;;;;;;3.47;1.65;;;;;;;;;;10225275;28;20563;-72
2021/12/21 04:09:42;;;;;;;8.00;2.35;;;;;;;;;;10231912;28;20122;-69
2021/12/21 04:14:45;;;;;;;4.90;2.53;;;;;;;;;;10243389;28;20035;-71
2021/12/21 04:19:49;;;;;;;4.85;2.15;;;;;;;;;;10243743;28;20439;-70
2021/12/21 04:24:55;;;;;;;7.27;3.20;;;;;;;;;;10242935;28;20075;-71
2021/12/21 04:29:58;;;;;;;7.67;3.03;;;;;;;;;;10243740;28;20069;-70
2021/12/21 04:35:01;;;;;;;7.23;2.93;;;;;;;;;;10213710;28;20477;-71
2021/12/21 04:40:13;;;;;;;6.07;2.87;;;;;;;;;;10219848;28;20074;-72
2021/12/21 04:45:16;;;;;;;8.87;3.27;;;;;;;;;;10218106;28;20414;-71
2021/12/21 04:50:20;;;;;;;5.63;2.90;;;;;;;;;;10227102;28;20305;-71
2021/12/21 04:55:25;;;;;;;9.05;3.85;;;;;;;;;;10221925;28;20078;-71
2021/12/21 05:00:27;;;;;;;;;;;;;;;;;;10242312;28;20366;-71
2021/12/21 05:05:31;;;;;;;5.83;2.60;;;;;;;;;;10237931;28;19937;-69
2021/12/21 05:10:42;;;;;;;4.27;2.57;;;;;;;;;;10239129;28;20384;-70
2021/12/21 05:15:46;;;;;;;6.97;3.00;;;;;;;;;;10222086;28;20125;-68
2021/12/21 05:20:49;;;;;;;5.82;2.80;;;;;;;;;;10217038;28;20486;-71
2021/12/21 05:25:54;;;;;;;4.95;2.65;;;;;;;;;;10237444;28;20039;-70
2021/12/21 05:30:57;;;;;;;4.83;2.30;;;;;;;;;;10234499;28;20102;-69
2021/12/21 05:36:00;;;;;;;7.90;3.83;;;;;;;;;;10218251;28;20130;-71
2021/12/21 05:41:11;;;;;;;9.00;3.77;;;;;;;;;;10248085;28;20436;-70
2021/12/21 05:46:15;;;;;;;7.13;2.93;;;;;;;;;;10220429;28;20134;-69
2021/12/21 05:51:20;;;;;;;6.03;2.57;;;;;;;;;;10221874;28;20780;-73
2021/12/21 05:56:25;;;;;;;9.90;2.70;;;;;;;;;;10247300;28;20049;-71
2021/12/21 06:01:28;;;;;;;8.10;3.80;;;;;;;;;;10225717;28;20098;-71
2021/12/21 06:06:32;;;;;;;10.80;3.73;;;;;;;;;;10246035;28;20046;-71
2021/12/21 06:11:43;;;;;;;10.02;3.83;;;;;;;;;;10246822;28;20063;-72
2021/12/21 06:27:34;;;;;;;6.23;3.27;;;;;;;;;;10277209;23;20089;-72
2021/12/21 06:32:38;;;;;;;10.43;4.50;;;;;;;;;;10280393;28;20039;-71
2021/12/21 06:37:41;;;;;;;11.40;4.00;;;;;;;;;;10271084;28;20416;-73
2021/12/21 06:42:49;;;;;;;16.23;5.13;;;;;;;;;;10262647;28;20495;-72
2021/12/21 06:53:16;;;;;;;7.20;3.47;;;;;;;;;;10294079;28;20047;-71
2021/12/21 06:58:21;;;;;;;10.70;3.33;;;;;;;;;;10270901;28;20034;-73
2021/12/21 07:03:24;;;;;;;8.27;3.63;;;;;;;;;;10292033;28;20309;-74
2021/12/21 07:08:31;;;;;;;3.97;2.42;;;;;;;;;;10274796;28;20053;-73
2021/12/21 07:18:57;;;;;;;13.03;4.40;;;;;;;;;;10284487;28;20053;-75
2021/12/21 07:23:59;;;;;;;8.70;4.33;;;;;;;;;;10289081;28;20035;-74
2021/12/21 07:29:04;;;;;;;8.60;3.60;;;;;;;;;;10285795;28;20126;-74
2021/12/21 07:34:08;;;;;;;7.63;4.47;;;;;;;;;;10272566;28;20057;-73
2021/12/21 07:39:13;;;;;;;9.87;4.23;;;;;;;;;;10283796;28;20467;-72
2021/12/21 07:44:18;;;;;;;9.93;4.00;;;;;;;;;;10269020;28;20042;-73
2021/12/21 07:49:22;;;;;;;13.57;4.30;;;;;;;;;;10278590;28;20038;-73
2021/12/21 07:54:25;;;;;;;10.57;5.43;;;;;;;;;;10275672;28;20065;-72
2021/12/21 07:59:30;;;;;;;13.23;5.03;;;;;;;;;;10276327;28;20129;-72
2021/12/21 08:04:34;;;;;;;5.17;2.57;;;;;;;;;;10275613;28;20482;-72
2021/12/21 08:09:41;;;;;;;10.48;3.47;;;;;;;;;;10286036;28;20034;-73
2021/12/21 08:14:46;;;;;;;10.43;4.23;;;;;;;;;;10286119;28;20046;-73
2021/12/21 08:19:49;;;;;;;9.60;4.23;;;;;;;;;;10266622;28;20149;-72
2021/12/21 08:24:52;;;;;;;11.50;5.35;;;;;;;;;;10283122;28;20066;-72
2021/12/21 08:29:57;;;;;;;13.20;5.23;;;;;;;;;;10259361;28;20039;-72
2021/12/21 08:35:00;;;;;;;8.00;3.27;;;;;;;;;;10247518;28;20162;-73
2021/12/21 08:40:04;;;;;;;12.07;6.17;;;;;;;;;;10283241;28;20420;-73
2021/12/21 08:45:09;;;;;;;7.90;3.38;;;;;;;;;;10277741;28;20046;-71
2021/12/21 08:50:14;;;;;;;15.13;6.67;;;;;;;;;;10272763;28;20043;-71
2021/12/21 08:55:18;;;;;;;18.27;7.10;;;;;;;;;;10277741;28;20041;-72
2021/12/21 09:00:23;;;;;;;13.82;5.60;;;;;;;;;;10283544;28;20106;-72
2021/12/21 09:05:30;;;;;;;18.70;7.10;;;;;;;;;;10255433;28;20038;-73
2021/12/21 09:10:34;;;;;;;13.98;6.85;;;;;;;;;;10280260;28;20134;-73
2021/12/21 09:15:39;;;;;;;18.98;7.45;;;;;;;;;;10262713;28;20035;-72
2021/12/21 09:20:42;;;;;;;15.07;7.30;;;;;;;;;;10255770;28;20054;-73
2021/12/21 09:25:46;;;;;;;13.87;7.40;;;;;;;;;;10278573;28;20129;-74
2021/12/21 09:30:50;;;;;;;12.27;5.90;;;;;;;;;;10269161;28;20490;-72
2021/12/21 09:35:53;;;;;;;15.32;6.53;;;;;;;;;;10288682;28;20121;-72
2021/12/21 09:40:56;;;;;;;14.77;7.47;;;;;;;;;;10287085;28;20046;-73
2021/12/21 09:46:00;;;;;;;10.82;6.95;;;;;;;;;;10306654;28;20043;-75
2021/12/21 09:51:04;;;;;;;12.93;7.60;;;;;;;;;;10295627;28;20109;-72
2021/12/21 09:56:06;;;;;;;11.02;6.80;;;;;;;;;;10293866;28;20039;-72
2021/12/21 10:01:11;;;;;;;13.43;7.15;;;;;;;;;;10312045;28;21791;-73
2021/12/21 10:06:15;;;;;;;13.50;7.63;;;;;;;;;;10290373;28;20043;-73
2021/12/21 10:11:19;;;;;;;18.85;9.65;;;;;;;;;;10275855;28;20067;-73
2021/12/21 10:16:23;;;;;;;17.27;8.40;;;;;;;;;;10296259;28;20089;-72
2021/12/21 10:21:26;;;;;;;18.45;8.13;;;;;;;;;;10282960;28;20070;-71
2021/12/21 10:26:30;;;;;;;16.00;6.95;;;;;;;;;;10278681;28;20049;-73
2021/12/21 10:31:39;;;;;;;16.63;7.70;;;;;;;;;;10304595;28;20133;-73
2021/12/21 10:36:42;;;;;;;12.05;6.00;;;;;;;;;;10292872;28;20038;-72
2021/12/21 10:41:45;;;;;;;23.87;7.50;;;;;;;;;;10284487;28;20047;-72
2021/12/21 10:46:51;;;;;;;14.32;7.30;;;;;;;;;;10263952;28;20294;-73
2021/12/21 10:52:08;;;;;;;14.00;6.85;;;;;;;;;;10268650;28;20053;-73
2021/12/21 10:57:17;;;;;;;13.27;7.03;;;;;;;;;;10283698;28;20401;-73
2021/12/21 11:02:25;;;;;;;14.23;7.65;;;;;;;;;;10261432;28;20038;-73
2021/12/21 11:07:32;;;;;;;13.77;7.22;;;;;;;;;;10276434;28;20026;-73
2021/12/21 11:12:42;;;;;;;14.25;7.35;;;;;;;;;;10275753;28;20610;-73
2021/12/21 11:17:46;;;;;;;15.60;6.43;;;;;;;;;;10269526;28;20555;-73
2021/12/21 11:22:49;;;;;;;14.93;6.35;;;;;;;;;;10254043;28;20042;-73
2021/12/21 11:27:52;;;;;;;16.98;6.40;;;;;;;;;;10285232;28;20522;-72
2021/12/21 11:32:57;;;;;;;14.03;5.90;;;;;;;;;;10287759;28;20049;-74
2021/12/21 11:38:01;;;;;;;15.15;5.97;;;;;;;;;;10318211;28;20039;-72
2021/12/21 11:43:11;;;;;;;15.98;5.90;;;;;;;;;;10289714;28;20070;-73
2021/12/21 11:48:19;;;;;;;15.67;6.33;;;;;;;;;;10284777;28;20551;-73
2021/12/21 11:53:22;;;;;;;10.97;3.93;;;;;;;;;;10283575;28;20038;-72
2021/12/21 11:58:26;;;;;;;16.00;6.05;;;;;;;;;;10282054;28;20038;-71
2021/12/21 12:03:32;;;;;;;15.32;6.53;;;;;;;;;;10257003;28;20053;-74
2021/12/21 12:08:43;;;;;;;14.02;5.93;;;;;;;;;;10276171;28;20073;-74
2021/12/21 12:13:46;;;;;;;14.77;5.80;;;;;;;;;;10262206;28;20057;-71
2021/12/21 12:18:52;;;;;;;13.80;5.60;;;;;;;;;;10272113;28;20038;-73
2021/12/21 12:23:56;;;;;;;17.13;6.30;;;;;;;;;;10253417;28;20496;-73
2021/12/21 12:28:59;;;;;;;;;;;;;;;;;;10272047;23;20499;-70
2021/12/21 12:34:05;;;;;;;15.00;5.60;;;;;;;;;;10251624;28;19922;-70
2021/12/21 12:39:08;;;;;;;16.50;6.57;;;;;;;;;;10223347;28;20051;-70
2021/12/21 12:44:22;;;;;;;14.52;7.32;;;;;;;;;;10219500;29;20111;-70
2021/12/21 12:49:28;;;;;;;13.77;6.25;;;;;;;;;;10229995;28;20035;-70
2021/12/21 12:54:31;;;;;;;16.55;7.70;;;;;;;;;;10241582;28;20211;-71
2021/12/21 12:59:34;;;;;;;13.20;7.00;;;;;;;;;;10225115;29;20105;-70
2021/12/21 13:04:39;;;;;;;12.35;5.25;;;;;;;;;;10232901;28;20105;-70
2021/12/21 13:09:42;;;;;;;14.70;6.72;;;;;;;;;;10219565;29;20040;-69
2021/12/21 13:14:53;;;;;;;15.77;6.83;;;;;;;;;;10219039;29;20035;-71
2021/12/21 13:19:57;;;;;;;12.20;6.20;;;;;;;;;;10219933;28;20483;-70
2021/12/21 13:25:03;;;;;;;15.70;6.60;;;;;;;;;;10219362;29;20097;-70
2021/12/21 13:30:06;;;;;;;15.55;7.50;;;;;;;;;;10211860;29;20134;-70
2021/12/21 13:35:15;;;;;;;15.15;7.53;;;;;;;;;;10229949;28;20444;-69
2021/12/21 13:40:18;;;;;;;15.85;7.10;;;;;;;;;;10215697;29;20043;-71
2021/12/21 13:45:23;;;;;;;18.05;6.88;;;;;;;;;;10231180;29;20051;-71
2021/12/21 13:50:27;;;;;;;15.07;6.30;;;;;;;;;;10214556;29;20102;-70
2021/12/21 13:55:30;;;;;;;;;;;;;;;;;;10240728;28;20066;-71
2021/12/21 14:00:34;;;;;;;16.90;6.10;;;;;;;;;;10216754;29;20303;-71
2021/12/21 14:05:43;;;;;;;18.00;6.27;;;;;;;;;;10224721;29;20359;-70
2021/12/21 14:10:47;;;;;;;14.23;5.67;;;;;;;;;;10242417;28;20381;-69
2021/12/21 14:15:50;;;;;;;23.30;7.00;;;;;;;;;;10267398;28;20475;-70
2021/12/21 14:21:01;;;;;;;16.10;6.23;;;;;;;;;;10269831;28;20049;-70
2021/12/21 14:26:05;;;;;;;10.07;3.53;;;;;;;;;;10258156;28;20071;-70
2021/12/21 14:31:09;;;;;;;10.52;3.45;;;;;;;;;;10240987;28;20055;-69
2021/12/21 14:36:15;;;;;;;8.90;3.88;;;;;;;;;;10255478;28;20049;-70
2021/12/21 14:41:23;;;;;;;13.97;5.33;;;;;;;;;;10232150;28;20111;-70
2021/12/21 14:46:26;;;;;;;13.90;5.43;;;;;;;;;;10238598;28;20053;-70
2021/12/21 14:51:37;;;;;;;16.17;4.10;;;;;;;;;;10247795;28;20054;-70
2021/12/21 14:56:40;;;;;;;25.43;6.03;;;;;;;;;;10261261;28;20043;-70
2021/12/21 15:01:48;;;;;;;14.03;4.20;;;;;;;;;;10255208;28;20122;-71
2021/12/21 15:06:53;;;;;;;8.03;3.83;;;;;;;;;;10260329;28;20154;-71
2021/12/21 15:11:56;;;;;;;;;;;;;;;;;;10256030;28;20039;-71
2021/12/21 15:16:58;;;;;;;13.77;5.03;;;;;;;;;;10256562;28;19929;-69
2021/12/21 15:22:03;;;;;;;4.93;2.30;;;;;;;;;;10248736;28;20046;-69
2021/12/21 15:27:06;;;;;;;8.77;4.57;;;;;;;;;;10253998;28;20494;-68
2021/12/21 15:32:12;;;;;;;15.87;5.70;;;;;;;;;;10236255;28;20109;-70
2021/12/21 15:37:17;;;;;;;19.90;8.00;;;;;;;;;;10252137;28;20047;-70
2021/12/21 15:42:20;;;;;;;16.58;5.50;;;;;;;;;;10254199;28;20051;-71
2021/12/21 15:47:23;;;;;;;9.93;4.03;;;;;;;;;;10267719;28;20809;-70
2021/12/21 15:52:28;;;;;;;11.13;5.23;;;;;;;;;;10263082;28;20035;-69
2021/12/21 15:57:31;;;;;;;6.07;2.90;;;;;;;;;;10249757;28;20400;-70
2021/12/21 16:02:35;;;;;;;24.77;8.90;;;;;;;;;;10248431;28;20039;-72
2021/12/21 16:07:39;;;;;;;18.03;7.27;;;;;;;;;;10271214;28;20043;-72
2021/12/21 16:12:42;;;;;;;19.37;5.10;;;;;;;;;;10260491;28;20043;-71
2021/12/21 16:17:45;;;;;;;17.20;7.37;;;;;;;;;;10252789;28;20070;-71
2021/12/21 16:22:49;;;;;;;20.00;7.23;;;;;;;;;;10263246;28;20349;-69
2021/12/21 16:27:52;;;;;;;;;;;;;;;;;;10264047;28;20042;-69
2021/12/21 16:32:55;;;;;;;16.57;6.30;;;;;;;;;;10240462;28;19922;-70
2021/12/21 16:38:00;;;;;;;4.07;2.10;;;;;;;;;;10271342;28;20085;-71
2021/12/21 16:43:03;;;;;;;10.37;3.37;;;;;;;;;;10264890;28;20046;-72
2021/12/21 16:48:07;;;;;;;8.90;4.40;;;;;;;;;;10252588;28;20634;-71
2021/12/21 16:53:11;;;;;;;14.95;6.40;;;;;;;;;;10256461;28;20097;-70
2021/12/21 16:58:15;;;;;;;;;;;;;;;;;;10255176;28;20039;-70
2021/12/21 17:03:18;;;;;;;24.17;8.35;;;;;;;;;;10256116;28;20354;-71
2021/12/21 17:08:23;;;;;;;51.77;15.13;;;;;;;;;;10260601;28;20035;-70
2021/12/21 17:13:26;;;;;;;17.40;5.90;;;;;;;;;;10247709;28;20043;-70
2021/12/21 17:18:29;;;;;;;17.63;7.17;;;;;;;;;;10246851;28;20566;-71
2021/12/21 17:23:34;;;;;;;21.47;7.00;;;;;;;;;;10263461;28;20065;-69
2021/12/21 17:28:37;;;;;;;25.80;7.13;;;;;;;;;;10241199;28;20039;-69
2021/12/21 17:33:40;;;;;;;15.50;6.50;;;;;;;;;;10255604;28;20042;-69
2021/12/21 17:38:44;;;;;;;20.03;7.33;;;;;;;;;;10258417;28;20522;-70
2021/12/21 17:43:47;;;;;;;;;;;;;;;;;;10248224;28;20259;-69
2021/12/21 17:48:50;;;;;;;27.03;8.87;;;;;;;;;;10271254;28;19926;-71
2021/12/21 17:53:54;;;;;;;33.37;8.23;;;;;;;;;;10296636;28;20126;-70
2021/12/21 17:59:01;;;;;;;16.63;6.03;;;;;;;;;;10277361;28;20039;-71
2021/12/21 18:04:05;;;;;;;14.40;4.80;;;;;;;;;;10249205;28;20125;-71
2021/12/21 18:09:09;;;;;;;12.90;4.43;;;;;;;;;;10270962;28;20382;-70
2021/12/21 18:14:15;;;;;;;12.77;5.88;;;;;;;;;;10270282;28;20047;-71
2021/12/21 18:19:18;;;;;;;19.73;6.80;;;;;;;;;;10257706;28;20035;-71
2021/12/21 18:24:22;;;;;;;6.73;2.37;;;;;;;;;;10271694;28;20050;-71
2021/12/21 18:34:44;;;;;;;13.70;6.50;;;;;;;;;;10177345;29;19922;-72
2021/12/21 18:39:49;;;;;;;16.53;6.60;;;;;;;;;;10203183;29;20150;-72
2021/12/21 18:44:52;;;;;;;7.70;3.53;;;;;;;;;;10201666;29;20050;-73
2021/12/21 18:49:55;;;;;;;13.67;5.07;;;;;;;;;;10198958;29;20027;-71
2021/12/21 18:54:59;;;;;;;10.63;4.33;;;;;;;;;;10191731;29;20048;-71
2021/12/21 19:00:23;;;;;;;21.00;7.60;;;;;;;;;;10193830;29;20031;-74
2021/12/21 19:05:27;;;;;;;;;;;;;;;;;;10193363;29;20088;-72
2021/12/21 19:10:31;;;;;;;20.20;7.47;;;;;;;;;;10215563;29;19929;-72
2021/12/21 19:15:34;;;;;;;24.97;8.20;;;;;;;;;;10213473;29;20048;-73
2021/12/21 19:20:38;;;;;;;23.40;8.00;;;;;;;;;;10198102;29;20415;-73
2021/12/21 19:25:43;;;;;;;;;;;;;;;;;;10214017;29;20040;-73
2021/12/21 19:30:46;;;;;;;;;;;;;;;;;;10206434;29;19927;-74
2021/12/21 19:35:50;;;;;;;11.20;3.37;;;;;;;;;;10207843;29;19949;-74
2021/12/21 19:40:53;;;;;;;;;;;;;;;;;;10202078;29;20131;-72
2021/12/21 19:45:56;;;;;;;9.97;4.93;;;;;;;;;;10196096;29;20044;-71
2021/12/21 19:51:03;;;;;;;11.00;4.67;;;;;;;;;;10193067;29;20059;-74
2021/12/21 19:56:06;;;;;;;13.30;5.77;;;;;;;;;;10201732;29;20051;-72
2021/12/21 20:01:14;;;;;;;26.03;10.77;;;;;;;;;;10197055;29;20047;-73
2021/12/21 20:06:18;;;;;;;7.63;2.90;;;;;;;;;;10194610;29;20044;-74
2021/12/21 20:11:32;;;;;;;10.50;3.40;;;;;;;;;;10203930;29;20040;-75
2021/12/21 20:16:35;;;;;;;19.17;7.75;;;;;;;;;;10200730;29;20136;-72
2021/12/21 20:21:39;;;;;;;21.80;8.20;;;;;;;;;;10190209;29;20499;-72
2021/12/21 20:26:42;;;;;;;;;;;;;;;;;;10195417;29;20095;-72
2021/12/21 20:31:45;;;;;;;13.00;5.83;;;;;;;;;;10190839;29;19926;-73
2021/12/21 20:36:50;;;;;;;4.10;2.40;;;;;;;;;;10201269;29;20065;-73
2021/12/21 20:41:53;;;;;;;4.03;2.60;;;;;;;;;;10192241;29;20042;-74
2021/12/21 20:46:56;;;;;;;16.23;5.30;;;;;;;;;;10194652;29;20048;-74
2021/12/21 20:52:02;;;;;;;16.50;5.93;;;;;;;;;;10196185;29;20510;-73
2021/12/21 20:57:04;;;;;;;18.83;6.80;;;;;;;;;;10181554;29;20460;-73
2021/12/21 21:02:09;;;;;;;20.90;7.57;;;;;;;;;;10175113;29;20126;-72
2021/12/21 21:07:20;;;;;;;21.73;6.30;;;;;;;;;;10189053;29;20039;-71
2021/12/21 21:12:23;;;;;;;17.83;6.47;;;;;;;;;;10201017;29;20492;-73
2021/12/21 21:17:26;;;;;;;24.20;7.77;;;;;;;;;;10183685;29;20110;-72
2021/12/21 21:22:30;;;;;;;21.47;7.67;;;;;;;;;;10200661;29;20071;-72
2021/12/21 21:27:33;;;;;;;18.43;6.87;;;;;;;;;;10200874;29;20126;-74
2021/12/21 21:32:36;;;;;;;18.60;6.43;;;;;;;;;;10182614;29;20135;-71
2021/12/21 21:37:41;;;;;;;17.57;5.80;;;;;;;;;;10181888;29;20042;-73
2021/12/21 21:42:44;;;;;;;19.97;6.90;;;;;;;;;;10200742;29;20028;-73
2021/12/21 21:47:47;;;;;;;21.07;7.53;;;;;;;;;;10200392;29;20046;-72
2021/12/21 21:52:52;;;;;;;19.93;7.23;;;;;;;;;;10199508;29;20091;-73
2021/12/21 21:57:55;;;;;;;15.77;6.40;;;;;;;;;;10178727;29;20039;-73
2021/12/21 22:02:58;;;;;;;23.67;7.87;;;;;;;;;;10199832;29;20576;-74
2021/12/21 22:08:03;;;;;;;18.25;6.90;;;;;;;;;;10192946;29;20108;-73
2021/12/21 22:13:08;;;;;;;19.73;6.97;;;;;;;;;;10187147;29;20531;-73
2021/12/21 22:18:11;;;;;;;14.93;5.50;;;;;;;;;;10193796;29;20425;-72
2021/12/21 22:23:15;;;;;;;16.23;7.13;;;;;;;;;;10197045;29;20047;-75
2021/12/21 22:28:17;;;;;;;;;;;;;;;;;;10195934;29;20056;-74
2021/12/21 22:33:21;;;;;;;18.80;5.87;;;;;;;;;;10204686;29;19937;-74
2021/12/21 22:38:25;;;;;;;18.13;5.77;;;;;;;;;;10213747;28;20048;-73
2021/12/21 22:43:28;;;;;;;17.17;5.77;;;;;;;;;;10194292;29;20043;-73
2021/12/21 22:48:31;;;;;;;21.20;5.93;;;;;;;;;;10210904;29;20554;-74
2021/12/21 22:53:36;;;;;;;8.83;4.50;;;;;;;;;;10213324;28;20443;-73
2021/12/21 22:58:39;;;;;;;16.13;6.37;;;;;;;;;;10206246;29;20052;-73
2021/12/21 23:03:42;;;;;;;23.73;7.10;;;;;;;;;;10205649;29;20047;-73
2021/12/21 23:08:46;;;;;;;16.33;6.20;;;;;;;;;;10209105;29;20452;-74
2021/12/21 23:13:48;;;;;;;;;;;;;;;;;;10202178;29;20489;-72
2021/12/21 23:18:51;;;;;;;19.80;6.40;;;;;;;;;;10202899;29;20283;-74
2021/12/21 23:23:56;;;;;;;20.60;7.27;;;;;;;;;;10214440;29;20032;-73
2021/12/21 23:28:58;;;;;;;;;;;;;;;;;;10243343;29;20099;-72
2021/12/21 23:34:03;;;;;;;16.13;6.77;;;;;;;;;;10224058;29;19954;-73
2021/12/21 23:39:08;;;;;;;27.17;8.33;;;;;;;;;;10210740;29;20071;-73
2021/12/21 23:44:11;;;;;;;18.37;7.07;;;;;;;;;;10187584;29;20047;-73
2021/12/21 23:49:14;;;;;;;15.93;7.00;;;;;;;;;;10199475;29;20125;-73
2021/12/21 23:54:19;;;;;;;13.23;6.13;;;;;;;;;;10201101;29;20044;-73
2021/12/21 23:59:22;;;;;;;15.37;6.73;;;;;;;;;;10201478;29;20048;-73
